Nashville, Tennessee
Traffic Map
Current Weather Conditions
Nashville, Tennessee
Broken Clouds
Broken Clouds
87°
Feels Like: 91°
Wind Chill: 87° Ceiling: 4500
Heat Index: 91° Visibility: 10mi
Dew Point: 68° Wind: 12mph
Humidity: 53% Direction: 150° (SSE)
Pressure: 30.09in Gusts: 0mph
Raw Report DataKBNA 291853Z 15010KT 10SM SCT035 BKN045 BKN200 31/20 A3009 RMK AO2 SLP183 T03060200
Traffic Incident Summary
Active as of:
Severity:
Category:
InformationThere was an issue retrieving the traffic information for this location. Please try a different location or try again shortly.
Advertisements
Track Severe Weather on mobile